FDX415 MROC-MPTO
Flight info
| Callsign | FDX415 |
|---|---|
| Flight time | 0h 51m |
| Altitude | 29000 |
| Route | TEJAR3M LIO UA317 BUFEO DCT BITOR VUMAN2B |
| Aircraft | B763/H-SDE3FGHIM3RWXY/LB1 |
Departure
| Time | 2026-05-04 01:41 |
|---|---|
| Airport | Juan Santamaría International Airport (MROC) |
Arrival
| Time | 2026-05-04 02:32 |
|---|---|
| Airport | Tocumen International Airport (MPTO) |
| Time | Latitude | Longitude | Altitude | Speed | Heading |
|---|---|---|---|---|---|
| 2026-05-04 00:57 | 9.99616 | -84.21059 | 3098 ft | 0 kts | 340° |
| 2026-05-04 01:11 | 9.99614 | -84.21058 | 3098 ft | 2 kts | 340° |
| 2026-05-04 01:12 | 9.99600 | -84.21054 | 3099 ft | 2 kts | 342° |
| 2026-05-04 01:12 | 9.99586 | -84.21049 | 3099 ft | 2 kts | 341° |
| 2026-05-04 01:12 | 9.99571 | -84.21044 | 3099 ft | 2 kts | 346° |
| 2026-05-04 01:12 | 9.99557 | -84.21044 | 3099 ft | 2 kts | 22° |
| 2026-05-04 01:13 | 9.99545 | -84.21052 | 3098 ft | 2 kts | 51° |
| 2026-05-04 01:13 | 9.99539 | -84.21064 | 3098 ft | 0 kts | 73° |
| 2026-05-04 01:13 | 9.99538 | -84.21065 | 3098 ft | 0 kts | 74° |
| 2026-05-04 01:15 | 9.99551 | -84.21028 | 3098 ft | 11 kts | 71° |
| 2026-05-04 01:15 | 9.99557 | -84.20966 | 3098 ft | 7 kts | 112° |
| 2026-05-04 01:16 | 9.99519 | -84.20930 | 3098 ft | 8 kts | 152° |
| 2026-05-04 01:16 | 9.99469 | -84.20940 | 3098 ft | 9 kts | 232° |
| 2026-05-04 01:16 | 9.99437 | -84.21014 | 3098 ft | 13 kts | 249° |
| 2026-05-04 01:16 | 9.99396 | -84.21123 | 3098 ft | 18 kts | 249° |
| 2026-05-04 01:17 | 9.99343 | -84.21262 | 3098 ft | 23 kts | 249° |
| 2026-05-04 01:17 | 9.99285 | -84.21419 | 3098 ft | 23 kts | 250° |
| 2026-05-04 01:17 | 9.99231 | -84.21566 | 3098 ft | 21 kts | 249° |
| 2026-05-04 01:17 | 9.99182 | -84.21697 | 3098 ft | 17 kts | 249° |
| 2026-05-04 01:18 | 9.99140 | -84.21808 | 3098 ft | 15 kts | 249° |
| 2026-05-04 01:18 | 9.99105 | -84.21900 | 3097 ft | 12 kts | 249° |
| 2026-05-04 01:18 | 9.99098 | -84.21976 | 3097 ft | 10 kts | 279° |
| 2026-05-04 01:18 | 9.99104 | -84.22047 | 3097 ft | 9 kts | 260° |
| 2026-05-04 01:19 | 9.99091 | -84.22105 | 3097 ft | 7 kts | 252° |
| 2026-05-04 01:19 | 9.99077 | -84.22148 | 3097 ft | 5 kts | 244° |
| 2026-05-04 01:19 | 9.99056 | -84.22178 | 3097 ft | 6 kts | 223° |
| 2026-05-04 01:19 | 9.99016 | -84.22193 | 3097 ft | 3 kts | 181° |
| 2026-05-04 01:20 | 9.99014 | -84.22193 | 3097 ft | 0 kts | 177° |
| 2026-05-04 01:30 | 9.99013 | -84.22193 | 3097 ft | 0 kts | 177° |
| 2026-05-04 01:31 | 9.99008 | -84.22192 | 3097 ft | 3 kts | 170° |
| 2026-05-04 01:31 | 9.98998 | -84.22183 | 3097 ft | 1 kts | 112° |
| 2026-05-04 01:31 | 9.99008 | -84.22167 | 3097 ft | 6 kts | 27° |
| 2026-05-04 01:31 | 9.99067 | -84.22147 | 3097 ft | 10 kts | 42° |
| 2026-05-04 01:32 | 9.99098 | -84.22077 | 3097 ft | 13 kts | 77° |
| 2026-05-04 01:32 | 9.99096 | -84.21963 | 3097 ft | 16 kts | 100° |
| 2026-05-04 01:32 | 9.99115 | -84.21873 | 3097 ft | 12 kts | 69° |
| 2026-05-04 01:32 | 9.99148 | -84.21786 | 3098 ft | 14 kts | 69° |
| 2026-05-04 01:33 | 9.99184 | -84.21689 | 3098 ft | 14 kts | 69° |
| 2026-05-04 01:33 | 9.99218 | -84.21599 | 3098 ft | 12 kts | 69° |
| 2026-05-04 01:33 | 9.99247 | -84.21521 | 3098 ft | 11 kts | 69° |
| 2026-05-04 01:33 | 9.99278 | -84.21437 | 3098 ft | 14 kts | 70° |
| 2026-05-04 01:34 | 9.99314 | -84.21340 | 3098 ft | 14 kts | 69° |
| 2026-05-04 01:34 | 9.99348 | -84.21250 | 3098 ft | 13 kts | 69° |
| 2026-05-04 01:34 | 9.99381 | -84.21162 | 3098 ft | 12 kts | 70° |
| 2026-05-04 01:34 | 9.99416 | -84.21065 | 3098 ft | 15 kts | 70° |
| 2026-05-04 01:35 | 9.99448 | -84.20980 | 3098 ft | 10 kts | 68° |
| 2026-05-04 01:35 | 9.99479 | -84.20932 | 3098 ft | 6 kts | 25° |
| 2026-05-04 01:35 | 9.99541 | -84.20946 | 3098 ft | 12 kts | 323° |
| 2026-05-04 01:35 | 9.99550 | -84.21035 | 3098 ft | 13 kts | 251° |
| 2026-05-04 01:36 | 9.99528 | -84.21122 | 3098 ft | 11 kts | 259° |
| 2026-05-04 01:36 | 9.99524 | -84.21143 | 3098 ft | 6 kts | 259° |
| 2026-05-04 01:36 | 9.99492 | -84.21189 | 3098 ft | 8 kts | 206° |
| 2026-05-04 01:36 | 9.99440 | -84.21192 | 3098 ft | 6 kts | 166° |
| 2026-05-04 01:37 | 9.99389 | -84.21186 | 3098 ft | 7 kts | 199° |
| 2026-05-04 01:37 | 9.99343 | -84.21261 | 3098 ft | 18 kts | 251° |
| 2026-05-04 01:37 | 9.99298 | -84.21389 | 3098 ft | 19 kts | 248° |
| 2026-05-04 01:37 | 9.99250 | -84.21514 | 3098 ft | 20 kts | 249° |
| 2026-05-04 01:38 | 9.99195 | -84.21660 | 3098 ft | 23 kts | 249° |
| 2026-05-04 01:38 | 9.99140 | -84.21808 | 3097 ft | 21 kts | 249° |
| 2026-05-04 01:38 | 9.99097 | -84.21945 | 3097 ft | 19 kts | 269° |
| 2026-05-04 01:38 | 9.99103 | -84.22070 | 3097 ft | 16 kts | 256° |
| 2026-05-04 01:39 | 9.99063 | -84.22168 | 3097 ft | 13 kts | 232° |
| 2026-05-04 01:39 | 9.99015 | -84.22192 | 3097 ft | 2 kts | 184° |
| 2026-05-04 01:39 | 9.98994 | -84.22190 | 3097 ft | 6 kts | 169° |
| 2026-05-04 01:39 | 9.98927 | -84.22166 | 3097 ft | 7 kts | 137° |
| 2026-05-04 01:40 | 9.98928 | -84.22121 | 3097 ft | 6 kts | 71° |
| 2026-05-04 01:40 | 9.98955 | -84.22040 | 3097 ft | 30 kts | 69° |
| 2026-05-04 01:40 | 9.99113 | -84.21622 | 3098 ft | 95 kts | 69° |
| 2026-05-04 01:40 | 9.99424 | -84.20790 | 3099 ft | 155 kts | 70° |
| 2026-05-04 01:41 | 9.99851 | -84.19617 | 3375 ft | 190 kts | 70° |
| 2026-05-04 01:41 | 10.00298 | -84.18395 | 4405 ft | 182 kts | 69° |
| 2026-05-04 01:41 | 10.00749 | -84.17221 | 4973 ft | 183 kts | 69° |
| 2026-05-04 01:41 | 10.01231 | -84.15969 | 5282 ft | 197 kts | 68° |
| 2026-05-04 01:42 | 10.01744 | -84.14623 | 5653 ft | 210 kts | 68° |
| 2026-05-04 01:42 | 10.02240 | -84.13192 | 6076 ft | 222 kts | 78° |
| 2026-05-04 01:42 | 10.02097 | -84.11590 | 6412 ft | 241 kts | 111° |
| 2026-05-04 01:42 | 10.01044 | -84.10251 | 6999 ft | 250 kts | 141° |
| 2026-05-04 01:43 | 9.99615 | -84.09246 | 7673 ft | 250 kts | 140° |
| 2026-05-04 01:43 | 9.98213 | -84.08176 | 8285 ft | 253 kts | 139° |
| 2026-05-04 01:43 | 9.96817 | -84.07079 | 8924 ft | 255 kts | 139° |
| 2026-05-04 01:43 | 9.95409 | -84.05952 | 9543 ft | 258 kts | 138° |
| 2026-05-04 01:44 | 9.94007 | -84.04819 | 10192 ft | 259 kts | 138° |
| 2026-05-04 01:44 | 9.92596 | -84.03669 | 10813 ft | 261 kts | 138° |
| 2026-05-04 01:44 | 9.91153 | -84.02497 | 11262 ft | 273 kts | 139° |
| 2026-05-04 01:44 | 9.89604 | -84.01266 | 11636 ft | 291 kts | 140° |
| 2026-05-04 01:45 | 9.87965 | -83.99964 | 12047 ft | 307 kts | 139° |
| 2026-05-04 01:45 | 9.86232 | -83.98586 | 12420 ft | 324 kts | 140° |
| 2026-05-04 01:45 | 9.83059 | -83.95077 | 13126 ft | 356 kts | 114° |
| 2026-05-04 01:46 | 9.82280 | -83.92646 | 13573 ft | 369 kts | 98° |
| 2026-05-04 01:46 | 9.82226 | -83.90026 | 14202 ft | 375 kts | 83° |
| 2026-05-04 01:46 | 9.82585 | -83.87403 | 14866 ft | 380 kts | 84° |
| 2026-05-04 01:46 | 9.82844 | -83.84715 | 15467 ft | 386 kts | 85° |
| 2026-05-04 01:47 | 9.83096 | -83.81994 | 16151 ft | 390 kts | 85° |
| 2026-05-04 01:47 | 9.83331 | -83.79243 | 16736 ft | 396 kts | 86° |
| 2026-05-04 01:47 | 9.83554 | -83.76426 | 17315 ft | 401 kts | 86° |
| 2026-05-04 01:47 | 9.83755 | -83.73613 | 17921 ft | 404 kts | 86° |
| 2026-05-04 01:48 | 9.83958 | -83.70739 | 18473 ft | 409 kts | 86° |
| 2026-05-04 01:48 | 9.84160 | -83.67863 | 19063 ft | 412 kts | 86° |
| 2026-05-04 01:48 | 9.84363 | -83.64959 | 19647 ft | 415 kts | 86° |
| 2026-05-04 01:48 | 9.84567 | -83.62030 | 20184 ft | 419 kts | 86° |
| 2026-05-04 01:49 | 9.84989 | -83.59090 | 20662 ft | 424 kts | 79° |
| 2026-05-04 01:49 | 9.85591 | -83.56160 | 21226 ft | 426 kts | 80° |
| 2026-05-04 01:49 | 9.86177 | -83.53193 | 21643 ft | 431 kts | 79° |
| 2026-05-04 01:49 | 9.86777 | -83.50194 | 22152 ft | 434 kts | 79° |
| 2026-05-04 01:50 | 9.87382 | -83.47180 | 22594 ft | 438 kts | 79° |
| 2026-05-04 01:50 | 9.87992 | -83.44148 | 23086 ft | 440 kts | 79° |
| 2026-05-04 01:50 | 9.88606 | -83.41092 | 23453 ft | 446 kts | 79° |
| 2026-05-04 01:50 | 9.89230 | -83.37999 | 23957 ft | 447 kts | 79° |
| 2026-05-04 01:51 | 9.89852 | -83.34912 | 24379 ft | 450 kts | 79° |
| 2026-05-04 01:51 | 9.90482 | -83.31787 | 24811 ft | 452 kts | 79° |
| 2026-05-04 01:51 | 9.91114 | -83.28646 | 25142 ft | 457 kts | 79° |
| 2026-05-04 01:51 | 9.91749 | -83.25488 | 25585 ft | 458 kts | 79° |
| 2026-05-04 01:52 | 9.92390 | -83.22300 | 25886 ft | 463 kts | 79° |
| 2026-05-04 01:52 | 9.93034 | -83.19099 | 26323 ft | 463 kts | 79° |
| 2026-05-04 01:52 | 9.93681 | -83.15878 | 26617 ft | 467 kts | 78° |
| 2026-05-04 01:52 | 9.94331 | -83.12643 | 26953 ft | 470 kts | 78° |
| 2026-05-04 01:53 | 9.94987 | -83.09379 | 27335 ft | 471 kts | 78° |
| 2026-05-04 01:53 | 9.95531 | -83.06089 | 27564 ft | 476 kts | 85° |
| 2026-05-04 01:53 | 9.95567 | -83.02732 | 27873 ft | 478 kts | 94° |
| 2026-05-04 01:53 | 9.95067 | -82.99395 | 28196 ft | 480 kts | 103° |
| 2026-05-04 01:54 | 9.94113 | -82.96137 | 28490 ft | 482 kts | 107° |
| 2026-05-04 01:54 | 9.93102 | -82.92891 | 28817 ft | 484 kts | 107° |
| 2026-05-04 01:54 | 9.92074 | -82.89643 | 28951 ft | 484 kts | 107° |
| 2026-05-04 01:54 | 9.91042 | -82.86391 | 28945 ft | 481 kts | 108° |
| 2026-05-04 01:55 | 9.88991 | -82.79972 | 28955 ft | 476 kts | 108° |
| 2026-05-04 01:55 | 9.86938 | -82.73572 | 28951 ft | 477 kts | 108° |
| 2026-05-04 01:56 | 9.84871 | -82.67145 | 28950 ft | 479 kts | 108° |
| 2026-05-04 01:56 | 9.82802 | -82.60716 | 28950 ft | 479 kts | 108° |
| 2026-05-04 01:57 | 9.80675 | -82.54311 | 28951 ft | 479 kts | 109° |
| 2026-05-04 01:57 | 9.78465 | -82.47937 | 28956 ft | 479 kts | 109° |
| 2026-05-04 01:58 | 9.76251 | -82.41553 | 28954 ft | 477 kts | 109° |
| 2026-05-04 01:58 | 9.74043 | -82.35193 | 28947 ft | 478 kts | 109° |
| 2026-05-04 01:59 | 9.71830 | -82.28822 | 28952 ft | 479 kts | 109° |
| 2026-05-04 01:59 | 9.69605 | -82.22418 | 28950 ft | 482 kts | 109° |
| 2026-05-04 02:00 | 9.67383 | -82.16027 | 28951 ft | 481 kts | 109° |
| 2026-05-04 02:00 | 9.65155 | -82.09624 | 28952 ft | 480 kts | 109° |
| 2026-05-04 02:01 | 9.62939 | -82.03258 | 28948 ft | 477 kts | 109° |
| 2026-05-04 02:01 | 9.60737 | -81.96937 | 28950 ft | 475 kts | 109° |
| 2026-05-04 02:02 | 9.58528 | -81.90604 | 28947 ft | 478 kts | 109° |
| 2026-05-04 02:02 | 9.56310 | -81.84246 | 28656 ft | 472 kts | 109° |
| 2026-05-04 02:03 | 9.55226 | -81.81139 | 28396 ft | 461 kts | 109° |
| 2026-05-04 02:03 | 9.54166 | -81.78102 | 28142 ft | 452 kts | 109° |
| 2026-05-04 02:03 | 9.53123 | -81.75111 | 27896 ft | 449 kts | 109° |
| 2026-05-04 02:03 | 9.52080 | -81.72123 | 27655 ft | 451 kts | 109° |
| 2026-05-04 02:04 | 9.51030 | -81.69117 | 27413 ft | 452 kts | 109° |
| 2026-05-04 02:04 | 9.49981 | -81.66116 | 27168 ft | 450 kts | 109° |
| 2026-05-04 02:04 | 9.48939 | -81.63135 | 26920 ft | 448 kts | 109° |
| 2026-05-04 02:04 | 9.47895 | -81.60150 | 26674 ft | 446 kts | 109° |
| 2026-05-04 02:05 | 9.46860 | -81.57192 | 26427 ft | 444 kts | 110° |
| 2026-05-04 02:05 | 9.45828 | -81.54244 | 26182 ft | 443 kts | 110° |
| 2026-05-04 02:05 | 9.44800 | -81.51307 | 25939 ft | 442 kts | 110° |
| 2026-05-04 02:05 | 9.43774 | -81.48375 | 25695 ft | 440 kts | 110° |
| 2026-05-04 02:06 | 9.42752 | -81.45459 | 25450 ft | 438 kts | 110° |
| 2026-05-04 02:06 | 9.41731 | -81.42546 | 25203 ft | 437 kts | 110° |
| 2026-05-04 02:06 | 9.40718 | -81.39653 | 24961 ft | 436 kts | 110° |
| 2026-05-04 02:06 | 9.39701 | -81.36753 | 24718 ft | 435 kts | 110° |
| 2026-05-04 02:07 | 9.38695 | -81.33884 | 24474 ft | 434 kts | 110° |
| 2026-05-04 02:07 | 9.37687 | -81.31010 | 24232 ft | 432 kts | 110° |
| 2026-05-04 02:07 | 9.36682 | -81.28147 | 23989 ft | 431 kts | 110° |
| 2026-05-04 02:07 | 9.35681 | -81.25293 | 23746 ft | 430 kts | 110° |
| 2026-05-04 02:08 | 9.34682 | -81.22448 | 23504 ft | 428 kts | 110° |
| 2026-05-04 02:08 | 9.33685 | -81.19608 | 23266 ft | 427 kts | 110° |
| 2026-05-04 02:08 | 9.32690 | -81.16775 | 23026 ft | 426 kts | 110° |
| 2026-05-04 02:08 | 9.31697 | -81.13951 | 22785 ft | 425 kts | 110° |
| 2026-05-04 02:09 | 9.30709 | -81.11138 | 22549 ft | 424 kts | 110° |
| 2026-05-04 02:09 | 9.29718 | -81.08321 | 22311 ft | 423 kts | 110° |
| 2026-05-04 02:09 | 9.28730 | -81.05510 | 22076 ft | 422 kts | 111° |
| 2026-05-04 02:09 | 9.27744 | -81.02709 | 21841 ft | 420 kts | 111° |
| 2026-05-04 02:10 | 9.26770 | -80.99935 | 21608 ft | 416 kts | 110° |
| 2026-05-04 02:10 | 9.25833 | -80.97171 | 21372 ft | 413 kts | 110° |
| 2026-05-04 02:10 | 9.24902 | -80.94424 | 21138 ft | 411 kts | 110° |
| 2026-05-04 02:10 | 9.23975 | -80.91685 | 20903 ft | 409 kts | 110° |
| 2026-05-04 02:11 | 9.23052 | -80.88963 | 20668 ft | 407 kts | 110° |
| 2026-05-04 02:11 | 9.22134 | -80.86252 | 20434 ft | 405 kts | 110° |
| 2026-05-04 02:11 | 9.21222 | -80.83562 | 20199 ft | 402 kts | 110° |
| 2026-05-04 02:11 | 9.20317 | -80.80894 | 19963 ft | 400 kts | 110° |
| 2026-05-04 02:12 | 9.19417 | -80.78241 | 19729 ft | 398 kts | 110° |
| 2026-05-04 02:12 | 9.18519 | -80.75594 | 19494 ft | 396 kts | 110° |
| 2026-05-04 02:12 | 9.17627 | -80.72964 | 19256 ft | 393 kts | 110° |
| 2026-05-04 02:12 | 9.16739 | -80.70350 | 19025 ft | 392 kts | 110° |
| 2026-05-04 02:13 | 9.15856 | -80.67750 | 18789 ft | 390 kts | 110° |
| 2026-05-04 02:13 | 9.14973 | -80.65151 | 18551 ft | 389 kts | 110° |
| 2026-05-04 02:13 | 9.14094 | -80.62563 | 18316 ft | 387 kts | 110° |
| 2026-05-04 02:13 | 9.13221 | -80.59996 | 18081 ft | 385 kts | 110° |
| 2026-05-04 02:14 | 9.12357 | -80.57453 | 17846 ft | 382 kts | 110° |
| 2026-05-04 02:14 | 9.11492 | -80.54909 | 17620 ft | 379 kts | 110° |
| 2026-05-04 02:14 | 9.10641 | -80.52405 | 17570 ft | 374 kts | 110° |
| 2026-05-04 02:14 | 9.09785 | -80.49890 | 17308 ft | 381 kts | 110° |
| 2026-05-04 02:15 | 9.08923 | -80.47358 | 17174 ft | 374 kts | 110° |
| 2026-05-04 02:15 | 9.08097 | -80.44929 | 16972 ft | 352 kts | 110° |
| 2026-05-04 02:15 | 9.07327 | -80.42664 | 16958 ft | 327 kts | 110° |
| 2026-05-04 02:15 | 9.06605 | -80.40541 | 17012 ft | 312 kts | 110° |
| 2026-05-04 02:16 | 9.06033 | -80.38403 | 17032 ft | 319 kts | 102° |
| 2026-05-04 02:16 | 9.05614 | -80.36138 | 16720 ft | 334 kts | 102° |
| 2026-05-04 02:16 | 9.05178 | -80.33845 | 16313 ft | 335 kts | 102° |
| 2026-05-04 02:16 | 9.04743 | -80.31542 | 15896 ft | 334 kts | 101° |
| 2026-05-04 02:17 | 9.04310 | -80.29240 | 15595 ft | 327 kts | 101° |
| 2026-05-04 02:17 | 9.03894 | -80.27029 | 15325 ft | 313 kts | 101° |
| 2026-05-04 02:17 | 9.03488 | -80.24875 | 14911 ft | 310 kts | 101° |
| 2026-05-04 02:17 | 9.03083 | -80.22723 | 14540 ft | 310 kts | 101° |
| 2026-05-04 02:18 | 9.02679 | -80.20573 | 14164 ft | 310 kts | 100° |
| 2026-05-04 02:18 | 9.02275 | -80.18428 | 13778 ft | 310 kts | 100° |
| 2026-05-04 02:18 | 9.01871 | -80.16285 | 13386 ft | 310 kts | 99° |
| 2026-05-04 02:18 | 9.01468 | -80.14142 | 12981 ft | 310 kts | 99° |
| 2026-05-04 02:19 | 9.01064 | -80.11993 | 12548 ft | 310 kts | 99° |
| 2026-05-04 02:19 | 9.00661 | -80.09857 | 12120 ft | 306 kts | 99° |
| 2026-05-04 02:19 | 9.00265 | -80.07758 | 11732 ft | 301 kts | 99° |
| 2026-05-04 02:19 | 8.99877 | -80.05700 | 11369 ft | 295 kts | 99° |
| 2026-05-04 02:20 | 8.99493 | -80.03663 | 11042 ft | 293 kts | 98° |
| 2026-05-04 02:20 | 8.99111 | -80.01641 | 10739 ft | 292 kts | 98° |
| 2026-05-04 02:20 | 8.98729 | -79.99616 | 10423 ft | 293 kts | 98° |
| 2026-05-04 02:20 | 8.98346 | -79.97588 | 10081 ft | 291 kts | 98° |
| 2026-05-04 02:21 | 8.97968 | -79.95589 | 9737 ft | 286 kts | 98° |
| 2026-05-04 02:21 | 8.97598 | -79.93630 | 9456 ft | 279 kts | 98° |
| 2026-05-04 02:21 | 8.97237 | -79.91716 | 9162 ft | 277 kts | 97° |
| 2026-05-04 02:21 | 8.96876 | -79.89805 | 8854 ft | 276 kts | 98° |
| 2026-05-04 02:22 | 8.96515 | -79.87891 | 8535 ft | 276 kts | 98° |
| 2026-05-04 02:22 | 8.96155 | -79.85984 | 8228 ft | 276 kts | 98° |
| 2026-05-04 02:22 | 8.95793 | -79.84073 | 7900 ft | 273 kts | 98° |
| 2026-05-04 02:22 | 8.95429 | -79.82192 | 7581 ft | 272 kts | 101° |
| 2026-05-04 02:23 | 8.94870 | -79.80357 | 7306 ft | 271 kts | 105° |
| 2026-05-04 02:23 | 8.94288 | -79.78548 | 7071 ft | 270 kts | 105° |
| 2026-05-04 02:23 | 8.93706 | -79.76735 | 6839 ft | 270 kts | 105° |
| 2026-05-04 02:23 | 8.93120 | -79.74922 | 6592 ft | 271 kts | 105° |
| 2026-05-04 02:24 | 8.92533 | -79.73110 | 6326 ft | 270 kts | 105° |
| 2026-05-04 02:24 | 8.91949 | -79.71313 | 6068 ft | 267 kts | 105° |
| 2026-05-04 02:24 | 8.91367 | -79.69521 | 5816 ft | 266 kts | 105° |
| 2026-05-04 02:24 | 8.90788 | -79.67739 | 5571 ft | 265 kts | 105° |
| 2026-05-04 02:25 | 8.90213 | -79.65969 | 5330 ft | 265 kts | 105° |
| 2026-05-04 02:25 | 8.89632 | -79.64181 | 5053 ft | 267 kts | 105° |
| 2026-05-04 02:25 | 8.89051 | -79.62397 | 4713 ft | 266 kts | 105° |
| 2026-05-04 02:25 | 8.88520 | -79.60642 | 4575 ft | 252 kts | 95° |
| 2026-05-04 02:26 | 8.88500 | -79.58918 | 4528 ft | 245 kts | 83° |
| 2026-05-04 02:26 | 8.88604 | -79.57170 | 4299 ft | 251 kts | 84° |
| 2026-05-04 02:26 | 8.88709 | -79.55411 | 4053 ft | 245 kts | 83° |
| 2026-05-04 02:26 | 8.88815 | -79.53749 | 4049 ft | 229 kts | 84° |
| 2026-05-04 02:27 | 8.89102 | -79.52207 | 4031 ft | 219 kts | 59° |
| 2026-05-04 02:27 | 8.90066 | -79.51025 | 3927 ft | 224 kts | 41° |
| 2026-05-04 02:27 | 8.91214 | -79.49963 | 3640 ft | 221 kts | 41° |
| 2026-05-04 02:27 | 8.92330 | -79.48939 | 3499 ft | 208 kts | 40° |
| 2026-05-04 02:28 | 8.93380 | -79.47995 | 3328 ft | 197 kts | 40° |
| 2026-05-04 02:28 | 8.94423 | -79.47070 | 2977 ft | 197 kts | 39° |
| 2026-05-04 02:28 | 8.95442 | -79.46172 | 2846 ft | 190 kts | 39° |
| 2026-05-04 02:28 | 8.96440 | -79.45312 | 2665 ft | 186 kts | 34° |
| 2026-05-04 02:29 | 8.97530 | -79.44615 | 2397 ft | 186 kts | 29° |
| 2026-05-04 02:29 | 8.98651 | -79.43942 | 1985 ft | 190 kts | 29° |
| 2026-05-04 02:29 | 8.99788 | -79.43244 | 1640 ft | 185 kts | 30° |
| 2026-05-04 02:29 | 9.00807 | -79.42569 | 1565 ft | 164 kts | 31° |
| 2026-05-04 02:30 | 9.01772 | -79.41973 | 1413 ft | 156 kts | 31° |
| 2026-05-04 02:30 | 9.02616 | -79.41444 | 1367 ft | 142 kts | 27° |
| 2026-05-04 02:30 | 9.03476 | -79.40985 | 1047 ft | 138 kts | 28° |
| 2026-05-04 02:30 | 9.04346 | -79.40467 | 843 ft | 144 kts | 30° |
| 2026-05-04 02:31 | 9.05195 | -79.39950 | 657 ft | 141 kts | 29° |
| 2026-05-04 02:31 | 9.06088 | -79.39419 | 504 ft | 153 kts | 29° |
| 2026-05-04 02:31 | 9.07010 | -79.38880 | 296 ft | 152 kts | 29° |
| 2026-05-04 02:31 | 9.07920 | -79.38340 | 147 ft | 143 kts | 30° |
| 2026-05-04 02:32 | 9.08590 | -79.37941 | 146 ft | 74 kts | 30° |
| 2026-05-04 02:32 | 9.08915 | -79.37746 | 145 ft | 32 kts | 30° |
| 2026-05-04 02:32 | 9.09104 | -79.37633 | 146 ft | 30 kts | 30° |
| 2026-05-04 02:32 | 9.09282 | -79.37527 | 147 ft | 27 kts | 30° |
| 2026-05-04 02:33 | 9.09322 | -79.37425 | 146 ft | 16 kts | 120° |
| 2026-05-04 02:33 | 9.09258 | -79.37341 | 147 ft | 13 kts | 163° |
| 2026-05-04 02:33 | 9.09177 | -79.37355 | 146 ft | 11 kts | 198° |
| 2026-05-04 02:33 | 9.09108 | -79.37378 | 146 ft | 10 kts | 198° |
| 2026-05-04 02:34 | 9.09040 | -79.37399 | 147 ft | 11 kts | 195° |
| 2026-05-04 02:34 | 9.08943 | -79.37428 | 146 ft | 16 kts | 198° |
| 2026-05-04 02:34 | 9.08868 | -79.37457 | 145 ft | 6 kts | 201° |
| 2026-05-04 02:34 | 9.08830 | -79.37456 | 145 ft | 4 kts | 163° |
| 2026-05-04 02:35 | 9.08795 | -79.37442 | 145 ft | 5 kts | 161° |
| 2026-05-04 02:35 | 9.08760 | -79.37432 | 145 ft | 3 kts | 162° |
| 2026-05-04 02:35 | 9.08753 | -79.37429 | 145 ft | 0 kts | 163° |